Nearby METAR Reports

This page may be slow to load as it queries the National Weather Service for data.

KBIS - Bismarck, North Dakota, USA
Distance from station: S 10mi, 15km
Updated: Mon, 23-May-2022 5:52am CDT
Light rain, Overcast
Light rain, Overcast
 Wind from SSE
Wind: SSE 6 mph , 9 km/h
Temperature: 43°F , 6°C
Wind Chill: 39°F , 4°C
Dew Point: 37°F , 3°C
Humidity: 81%
Barometer: 30.20 inHg , 1022.7 hPa
Summary: Light rain
Clouds: Overcast
Visibility: 10 miles , 16 km
Cloud details: Mostly cloudy 5500 ft
Overcast 8000 ft
2022/05/23 10:52 KBIS 231052Z 15005KT 10SM -RA BKN055 OVC080 06/03 A3020 RMK AO2 RAB33 SLP234 P0000 T00560028
KDIK - Dickinson, North Dakota, USA
Distance from station: W 95mi, 154km
Updated: Mon, 23-May-2022 5:56am CDT
Overcast
Overcast
 Wind from WNW
Wind: WNW 3 mph , 6 km/h
Temperature: 43°F , 6°C
Dew Point: 34°F , 1°C
Humidity: 71%
Barometer: 30.15 inHg , 1021 hPa
Clouds: Overcast
Visibility: 10 miles , 16 km
Cloud details: Overcast 6000 ft
2022/05/23 10:56 KDIK 231056Z AUTO 29003KT 10SM OVC060 06/01 A3015 RMK AO2 SLP219 T00560006
 
KXWA - Williston, North Dakota, USA
Distance from station: NNW 2mi, 2km
Updated: Mon, 23-May-2022 5:51am CDT
Clear
Clear
 Wind from S
Wind: S 9 mph , 15 km/h
Temperature: 39°F , 4°C
Wind Chill: 33°F , 1°C
Dew Point: 30°F , -1°C
Humidity: 70%
Barometer: 30.12 inHg , 1020 hPa
Clouds: Clear
Visibility: 10 miles , 16 km
2022/05/23 10:51 KXWA 231051Z AUTO 18008KT 10SM CLR 04/M01 A3012 RMK AO2 SLP217 T00391006 $
KFAR - Fargo, North Dakota, USA
Distance from station: NNW 4mi, 7km
Updated: Mon, 23-May-2022 5:53am CDT
Clear
Clear
 Wind from SE
Wind: SE 3 mph , 6 km/h
Temperature: 37°F , 3°C
Dew Point: 30°F , -1°C
Humidity: 75%
Barometer: 30.28 inHg , 1025.4 hPa
Clouds: Clear
Visibility: 10 miles , 16 km
2022/05/23 10:53 KFAR 231053Z 14003KT 10SM CLR 03/M01 A3028 RMK AO2 SLP261 T00281011
 
KGFK - Grand Forks, North Dakota, USA
Distance from station: NNW 76mi, 123km
Updated: Mon, 23-May-2022 5:53am CDT
Few Clouds
Few Clouds
 Wind from SSW
Wind: SSW 8 mph , 13 km/h
Temperature: 39°F , 4°C
Wind Chill: 33°F , 1°C
Dew Point: 34°F , 1°C
Humidity: 81%
Barometer: 30.23 inHg , 1023.7 hPa
Clouds: Few Clouds
Visibility: 10 miles , 16 km
Cloud details: Few Clouds 9000 ft
Few Clouds 25000 ft
2022/05/23 10:53 KGFK 231053Z 20007KT 10SM FEW090 FEW250 04/01 A3023 RMK AO2 SLP244 T00390006
KMOT - Minot, North Dakota, USA
Distance from station: E 109mi, 175km
Updated: Mon, 23-May-2022 5:54am CDT
Overcast
Overcast
 Wind from S
Wind: S 12 mph , 19 km/h
Temperature: 46°F , 8°C
Wind Chill: 40°F , 4°C
Dew Point: 30°F , -1°C
Humidity: 53%
Barometer: 30.15 inHg , 1021 hPa
Clouds: Overcast
Visibility: 10 miles , 16 km
Cloud details: Mostly cloudy 8000 ft
Overcast 9000 ft
2022/05/23 10:54 KMOT 231054Z AUTO 18010KT 10SM BKN080 OVC090 08/M01 A3015 RMK AO2 SLP217 T00831011